sensor_id;sensor_type;location;lat;lon;timestamp;temperature;humidity
32612;DHT22;19030;49.478;8.986;2023-03-01T00:01:27;-1.20;99.90
32612;DHT22;19030;49.478;8.986;2023-03-01T00:03:28;-1.20;99.90
32612;DHT22;19030;49.478;8.986;2023-03-01T00:05:29;-1.20;99.90
32612;DHT22;19030;49.478;8.986;2023-03-01T00:07:30;-1.20;99.90
32612;DHT22;19030;49.478;8.986;2023-03-01T00:09:30;-1.20;99.90
32612;DHT22;19030;49.478;8.986;2023-03-01T00:11:32;-1.20;99.90
32612;DHT22;19030;49.478;8.986;2023-03-01T00:13:34;-1.10;99.90
32612;DHT22;19030;49.478;8.986;2023-03-01T00:15:38;-1.10;99.90
32612;DHT22;19030;49.478;8.986;2023-03-01T00:17:40;-1.10;99.90
32612;DHT22;19030;49.478;8.986;2023-03-01T00:19:40;-1.10;99.90
32612;DHT22;19030;49.478;8.986;2023-03-01T00:21:41;-1.10;99.90
32612;DHT22;19030;49.478;8.986;2023-03-01T00:23:42;-1.00;99.90
32612;DHT22;19030;49.478;8.986;2023-03-01T00:25:43;-1.00;99.90
32612;DHT22;19030;49.478;8.986;2023-03-01T00:27:43;-1.00;99.90
32612;DHT22;19030;49.478;8.986;2023-03-01T00:29:44;-1.00;99.90
32612;DHT22;19030;49.478;8.986;2023-03-01T00:31:44;-1.00;99.90
32612;DHT22;19030;49.478;8.986;2023-03-01T00:33:45;-0.90;99.90
32612;DHT22;19030;49.478;8.986;2023-03-01T00:35:46;-1.00;99.90
32612;DHT22;19030;49.478;8.986;2023-03-01T00:37:46;-1.00;99.90
32612;DHT22;19030;49.478;8.986;2023-03-01T00:39:47;-1.00;99.90
32612;DHT22;19030;49.478;8.986;2023-03-01T00:41:48;-1.00;99.90
32612;DHT22;19030;49.478;8.986;2023-03-01T00:43:49;-1.00;99.90
32612;DHT22;19030;49.478;8.986;2023-03-01T00:45:50;-1.00;99.90
32612;DHT22;19030;49.478;8.986;2023-03-01T00:47:51;-1.00;99.90
32612;DHT22;19030;49.478;8.986;2023-03-01T00:49:52;-1.00;99.90
32612;DHT22;19030;49.478;8.986;2023-03-01T00:51:53;-1.00;99.90
32612;DHT22;19030;49.478;8.986;2023-03-01T00:53:55;-0.90;99.90
32612;DHT22;19030;49.478;8.986;2023-03-01T00:55:57;-0.90;99.90
32612;DHT22;19030;49.478;8.986;2023-03-01T00:57:58;-0.90;99.90
32612;DHT22;19030;49.478;8.986;2023-03-01T00:59:59;-0.90;99.90
32612;DHT22;19030;49.478;8.986;2023-03-01T01:01:59;-0.90;99.90
32612;DHT22;19030;49.478;8.986;2023-03-01T01:04:08;-1.00;99.90
32612;DHT22;19030;49.478;8.986;2023-03-01T01:06:20;-1.00;99.90
32612;DHT22;19030;49.478;8.986;2023-03-01T01:08:21;-1.00;99.90
32612;DHT22;19030;49.478;8.986;2023-03-01T01:10:22;-1.00;99.90
32612;DHT22;19030;49.478;8.986;2023-03-01T01:12:22;-1.00;99.90
32612;DHT22;19030;49.478;8.986;2023-03-01T01:14:23;-1.10;99.90
32612;DHT22;19030;49.478;8.986;2023-03-01T01:16:25;-0.90;99.90
32612;DHT22;19030;49.478;8.986;2023-03-01T01:18:26;-0.90;99.90
32612;DHT22;19030;49.478;8.986;2023-03-01T01:20:27;-0.80;99.90
32612;DHT22;19030;49.478;8.986;2023-03-01T01:22:28;-0.80;99.90
32612;DHT22;19030;49.478;8.986;2023-03-01T01:24:28;-0.70;99.90
32612;DHT22;19030;49.478;8.986;2023-03-01T01:26:31;-0.60;99.90
32612;DHT22;19030;49.478;8.986;2023-03-01T01:28:32;-0.60;99.90
32612;DHT22;19030;49.478;8.986;2023-03-01T01:30:32;-0.70;99.90
32612;DHT22;19030;49.478;8.986;2023-03-01T01:32:33;-0.70;99.90
32612;DHT22;19030;49.478;8.986;2023-03-01T01:34:33;-0.70;99.90
32612;DHT22;19030;49.478;8.986;2023-03-01T01:36:34;-0.80;99.90
32612;DHT22;19030;49.478;8.986;2023-03-01T01:38:37;-0.70;99.90
32612;DHT22;19030;49.478;8.986;2023-03-01T01:40:45;-0.70;99.90
32612;DHT22;19030;49.478;8.986;2023-03-01T01:42:45;-0.70;99.90
32612;DHT22;19030;49.478;8.986;2023-03-01T01:44:47;-0.70;99.90
32612;DHT22;19030;49.478;8.986;2023-03-01T01:47:00;-0.70;99.90
32612;DHT22;19030;49.478;8.986;2023-03-01T01:49:07;-0.70;99.90
32612;DHT22;19030;49.478;8.986;2023-03-01T01:51:16;-0.80;99.90
32612;DHT22;19030;49.478;8.986;2023-03-01T01:53:19;-0.80;99.90
32612;DHT22;19030;49.478;8.986;2023-03-01T01:55:26;-0.90;99.90
32612;DHT22;19030;49.478;8.986;2023-03-01T01:57:33;-0.90;99.90
32612;DHT22;19030;49.478;8.986;2023-03-01T01:59:34;-1.00;99.90
32612;DHT22;19030;49.478;8.986;2023-03-01T02:01:35;-1.10;99.90
32612;DHT22;19030;49.478;8.986;2023-03-01T02:03:38;-1.10;99.90
32612;DHT22;19030;49.478;8.986;2023-03-01T02:05:51;-1.10;99.90
32612;DHT22;19030;49.478;8.986;2023-03-01T02:07:53;-1.10;99.90
32612;DHT22;19030;49.478;8.986;2023-03-01T02:09:54;-1.20;99.90
32612;DHT22;19030;49.478;8.986;2023-03-01T02:11:54;-1.10;99.90
32612;DHT22;19030;49.478;8.986;2023-03-01T02:13:55;-1.10;99.90
32612;DHT22;19030;49.478;8.986;2023-03-01T02:15:56;-1.00;99.90
32612;DHT22;19030;49.478;8.986;2023-03-01T02:17:57;-1.00;99.90
32612;DHT22;19030;49.478;8.986;2023-03-01T02:20:26;-1.00;99.90
32612;DHT22;19030;49.478;8.986;2023-03-01T02:22:31;-1.10;99.90
32612;DHT22;19030;49.478;8.986;2023-03-01T02:24:59;-1.00;99.90
32612;DHT22;19030;49.478;8.986;2023-03-01T02:27:03;-1.00;99.90
32612;DHT22;19030;49.478;8.986;2023-03-01T02:29:04;-1.00;99.90
32612;DHT22;19030;49.478;8.986;2023-03-01T02:31:07;-1.00;99.90
32612;DHT22;19030;49.478;8.986;2023-03-01T02:33:27;-1.00;99.90
32612;DHT22;19030;49.478;8.986;2023-03-01T02:35:32;-1.00;99.90
32612;DHT22;19030;49.478;8.986;2023-03-01T02:37:35;-1.10;99.90
32612;DHT22;19030;49.478;8.986;2023-03-01T02:39:40;-1.10;99.90
32612;DHT22;19030;49.478;8.986;2023-03-01T02:41:46;-1.10;99.90
32612;DHT22;19030;49.478;8.986;2023-03-01T02:43:47;-1.00;99.90
32612;DHT22;19030;49.478;8.986;2023-03-01T02:45:49;-1.00;99.90
32612;DHT22;19030;49.478;8.986;2023-03-01T02:47:54;-1.10;99.90
32612;DHT22;19030;49.478;8.986;2023-03-01T02:49:55;-1.10;99.90
32612;DHT22;19030;49.478;8.986;2023-03-01T02:52:16;-1.00;99.90
32612;DHT22;19030;49.478;8.986;2023-03-01T02:54:29;-1.00;99.90
32612;DHT22;19030;49.478;8.986;2023-03-01T02:56:32;-1.00;99.90
32612;DHT22;19030;49.478;8.986;2023-03-01T02:58:32;-1.00;99.90
32612;DHT22;19030;49.478;8.986;2023-03-01T03:00:42;-1.00;99.90
32612;DHT22;19030;49.478;8.986;2023-03-01T03:02:49;-1.00;99.90
32612;DHT22;19030;49.478;8.986;2023-03-01T03:04:55;-1.00;99.90
32612;DHT22;19030;49.478;8.986;2023-03-01T03:06:55;-1.10;99.90
32612;DHT22;19030;49.478;8.986;2023-03-01T03:08:57;-1.10;99.90
32612;DHT22;19030;49.478;8.986;2023-03-01T03:10:57;-1.10;99.90
32612;DHT22;19030;49.478;8.986;2023-03-01T03:13:01;-1.10;99.90
32612;DHT22;19030;49.478;8.986;2023-03-01T03:15:03;-1.10;99.90
32612;DHT22;19030;49.478;8.986;2023-03-01T03:17:08;-1.10;99.90
32612;DHT22;19030;49.478;8.986;2023-03-01T03:19:09;-1.10;99.90
32612;DHT22;19030;49.478;8.986;2023-03-01T03:21:11;-1.10;99.90
32612;DHT22;19030;49.478;8.986;2023-03-01T03:23:12;-1.10;99.90
32612;DHT22;19030;49.478;8.986;2023-03-01T03:25:13;-1.10;99.90
32612;DHT22;19030;49.478;8.986;2023-03-01T03:27:14;-1.10;99.90
32612;DHT22;19030;49.478;8.986;2023-03-01T03:29:14;-1.10;99.90
32612;DHT22;19030;49.478;8.986;2023-03-01T03:31:15;-1.10;99.90
32612;DHT22;19030;49.478;8.986;2023-03-01T03:33:16;-1.10;99.90
32612;DHT22;19030;49.478;8.986;2023-03-01T03:35:17;-1.10;99.90
32612;DHT22;19030;49.478;8.986;2023-03-01T03:37:18;-1.20;99.90
32612;DHT22;19030;49.478;8.986;2023-03-01T03:39:37;-1.20;99.90
32612;DHT22;19030;49.478;8.986;2023-03-01T03:41:38;-1.30;99.90
32612;DHT22;19030;49.478;8.986;2023-03-01T03:43:39;-1.30;99.90
32612;DHT22;19030;49.478;8.986;2023-03-01T03:45:41;-1.30;99.90
32612;DHT22;19030;49.478;8.986;2023-03-01T03:47:42;-1.30;99.90
32612;DHT22;19030;49.478;8.986;2023-03-01T03:49:43;-1.30;99.90
32612;DHT22;19030;49.478;8.986;2023-03-01T03:51:45;-1.30;99.90
32612;DHT22;19030;49.478;8.986;2023-03-01T03:53:46;-1.30;99.90
32612;DHT22;19030;49.478;8.986;2023-03-01T03:55:47;-1.30;99.90
32612;DHT22;19030;49.478;8.986;2023-03-01T03:57:49;-1.30;99.90
32612;DHT22;19030;49.478;8.986;2023-03-01T03:59:54;-1.30;99.90
32612;DHT22;19030;49.478;8.986;2023-03-01T04:01:54;-1.30;99.90
32612;DHT22;19030;49.478;8.986;2023-03-01T04:03:56;-1.20;99.90
32612;DHT22;19030;49.478;8.986;2023-03-01T04:06:00;-1.20;99.90
32612;DHT22;19030;49.478;8.986;2023-03-01T04:08:01;-1.20;99.90
32612;DHT22;19030;49.478;8.986;2023-03-01T04:10:13;-1.20;99.90
32612;DHT22;19030;49.478;8.986;2023-03-01T04:12:14;-1.30;99.90
32612;DHT22;19030;49.478;8.986;2023-03-01T04:14:14;-1.30;99.90
32612;DHT22;19030;49.478;8.986;2023-03-01T04:16:15;-1.30;99.90
32612;DHT22;19030;49.478;8.986;2023-03-01T04:18:17;-1.30;99.90
32612;DHT22;19030;49.478;8.986;2023-03-01T04:20:21;-1.30;99.90
32612;DHT22;19030;49.478;8.986;2023-03-01T04:22:25;-1.30;99.90
32612;DHT22;19030;49.478;8.986;2023-03-01T04:24:29;-1.30;99.90
32612;DHT22;19030;49.478;8.986;2023-03-01T04:26:30;-1.40;99.90
32612;DHT22;19030;49.478;8.986;2023-03-01T04:28:44;-1.30;99.90
32612;DHT22;19030;49.478;8.986;2023-03-01T04:30:46;-1.30;99.90
32612;DHT22;19030;49.478;8.986;2023-03-01T04:32:46;-1.30;99.90
32612;DHT22;19030;49.478;8.986;2023-03-01T04:34:47;-1.40;99.90
32612;DHT22;19030;49.478;8.986;2023-03-01T04:36:47;-1.40;99.90
32612;DHT22;19030;49.478;8.986;2023-03-01T04:38:48;-1.40;99.90
32612;DHT22;19030;49.478;8.986;2023-03-01T04:40:49;-1.40;99.90
32612;DHT22;19030;49.478;8.986;2023-03-01T04:42:49;-1.40;99.90
32612;DHT22;19030;49.478;8.986;2023-03-01T04:44:50;-1.50;99.90
32612;DHT22;19030;49.478;8.986;2023-03-01T04:46:51;-1.50;99.90
32612;DHT22;19030;49.478;8.986;2023-03-01T04:48:52;-1.50;99.90
32612;DHT22;19030;49.478;8.986;2023-03-01T04:50:52;-1.60;99.90
32612;DHT22;19030;49.478;8.986;2023-03-01T04:52:54;-1.60;99.90
32612;DHT22;19030;49.478;8.986;2023-03-01T04:54:58;-1.60;99.90
32612;DHT22;19030;49.478;8.986;2023-03-01T04:57:00;-1.50;99.90
32612;DHT22;19030;49.478;8.986;2023-03-01T04:59:00;-1.50;99.90
32612;DHT22;19030;49.478;8.986;2023-03-01T05:01:08;-1.50;99.90
32612;DHT22;19030;49.478;8.986;2023-03-01T05:03:15;-1.50;99.90
32612;DHT22;19030;49.478;8.986;2023-03-01T05:05:20;-1.50;99.90
32612;DHT22;19030;49.478;8.986;2023-03-01T05:07:21;-1.50;99.90
32612;DHT22;19030;49.478;8.986;2023-03-01T05:09:21;-1.50;99.90
32612;DHT22;19030;49.478;8.986;2023-03-01T05:11:22;-1.60;99.90
32612;DHT22;19030;49.478;8.986;2023-03-01T05:13:23;-1.60;99.90
32612;DHT22;19030;49.478;8.986;2023-03-01T05:15:27;-1.60;99.90
32612;DHT22;19030;49.478;8.986;2023-03-01T05:17:28;-1.60;99.90
32612;DHT22;19030;49.478;8.986;2023-03-01T05:19:29;-1.60;99.90
32612;DHT22;19030;49.478;8.986;2023-03-01T05:21:31;-1.60;99.90
32612;DHT22;19030;49.478;8.986;2023-03-01T05:23:32;-1.70;99.90
32612;DHT22;19030;49.478;8.986;2023-03-01T05:25:34;-1.70;99.90
32612;DHT22;19030;49.478;8.986;2023-03-01T05:27:35;-1.60;99.90
32612;DHT22;19030;49.478;8.986;2023-03-01T05:29:36;-1.70;99.90
32612;DHT22;19030;49.478;8.986;2023-03-01T05:31:36;-1.70;99.90
32612;DHT22;19030;49.478;8.986;2023-03-01T05:33:41;-1.70;99.90
32612;DHT22;19030;49.478;8.986;2023-03-01T05:35:43;-1.70;99.90
32612;DHT22;19030;49.478;8.986;2023-03-01T05:37:46;-1.60;99.90
32612;DHT22;19030;49.478;8.986;2023-03-01T05:39:47;-1.60;99.90
32612;DHT22;19030;49.478;8.986;2023-03-01T05:41:55;-1.60;99.90
32612;DHT22;19030;49.478;8.986;2023-03-01T05:43:57;-1.50;99.90
32612;DHT22;19030;49.478;8.986;2023-03-01T05:45:57;-1.50;99.90
32612;DHT22;19030;49.478;8.986;2023-03-01T05:47:59;-1.60;99.90
32612;DHT22;19030;49.478;8.986;2023-03-01T05:50:00;-1.50;99.90
32612;DHT22;19030;49.478;8.986;2023-03-01T05:52:00;-1.50;99.90
32612;DHT22;19030;49.478;8.986;2023-03-01T05:54:01;-1.50;99.90
32612;DHT22;19030;49.478;8.986;2023-03-01T05:56:05;-1.50;99.90
32612;DHT22;19030;49.478;8.986;2023-03-01T05:58:14;-1.50;99.90
32612;DHT22;19030;49.478;8.986;2023-03-01T06:00:17;-1.40;99.90
32612;DHT22;19030;49.478;8.986;2023-03-01T06:02:18;-1.40;99.90
32612;DHT22;19030;49.478;8.986;2023-03-01T06:04:18;-1.40;99.90
32612;DHT22;19030;49.478;8.986;2023-03-01T06:06:19;-1.40;99.90
32612;DHT22;19030;49.478;8.986;2023-03-01T06:08:19;-1.30;99.90
32612;DHT22;19030;49.478;8.986;2023-03-01T06:10:22;-1.40;99.90
32612;DHT22;19030;49.478;8.986;2023-03-01T06:12:23;-1.30;99.90
32612;DHT22;19030;49.478;8.986;2023-03-01T06:14:24;-1.40;99.90
32612;DHT22;19030;49.478;8.986;2023-03-01T06:16:24;-1.40;99.90
32612;DHT22;19030;49.478;8.986;2023-03-01T06:18:25;-1.40;99.90
32612;DHT22;19030;49.478;8.986;2023-03-01T06:20:27;-1.30;99.90
32612;DHT22;19030;49.478;8.986;2023-03-01T06:22:28;-1.20;99.90
32612;DHT22;19030;49.478;8.986;2023-03-01T06:24:29;-1.20;99.90
32612;DHT22;19030;49.478;8.986;2023-03-01T06:26:29;-1.20;99.90
32612;DHT22;19030;49.478;8.986;2023-03-01T06:28:30;-1.20;99.90
32612;DHT22;19030;49.478;8.986;2023-03-01T06:30:30;-1.20;99.90
32612;DHT22;19030;49.478;8.986;2023-03-01T06:32:31;-1.20;99.90
32612;DHT22;19030;49.478;8.986;2023-03-01T06:34:32;-1.10;99.90
32612;DHT22;19030;49.478;8.986;2023-03-01T06:36:32;-1.00;99.90
32612;DHT22;19030;49.478;8.986;2023-03-01T06:38:33;-1.10;99.90
32612;DHT22;19030;49.478;8.986;2023-03-01T06:40:33;-1.10;99.90
32612;DHT22;19030;49.478;8.986;2023-03-01T06:42:35;-1.00;99.90
32612;DHT22;19030;49.478;8.986;2023-03-01T06:44:37;-1.00;99.90
32612;DHT22;19030;49.478;8.986;2023-03-01T06:46:39;-1.00;99.90
32612;DHT22;19030;49.478;8.986;2023-03-01T06:48:40;-1.00;99.90
32612;DHT22;19030;49.478;8.986;2023-03-01T06:50:41;-1.10;99.90
32612;DHT22;19030;49.478;8.986;2023-03-01T06:52:41;-1.00;99.90
32612;DHT22;19030;49.478;8.986;2023-03-01T06:54:44;-1.00;99.90
32612;DHT22;19030;49.478;8.986;2023-03-01T06:56:47;-1.00;99.90
32612;DHT22;19030;49.478;8.986;2023-03-01T06:58:47;-0.90;99.90
32612;DHT22;19030;49.478;8.986;2023-03-01T07:00:48;-0.80;99.90
32612;DHT22;19030;49.478;8.986;2023-03-01T07:02:49;-0.70;99.90
32612;DHT22;19030;49.478;8.986;2023-03-01T07:04:50;-0.50;99.90
32612;DHT22;19030;49.478;8.986;2023-03-01T07:06:51;-0.40;99.90
32612;DHT22;19030;49.478;8.986;2023-03-01T07:08:55;-0.30;99.90
32612;DHT22;19030;49.478;8.986;2023-03-01T07:10:57;-0.20;99.90
32612;DHT22;19030;49.478;8.986;2023-03-01T07:12:58;-0.10;99.90
32612;DHT22;19030;49.478;8.986;2023-03-01T07:14:58;0.00;99.90
32612;DHT22;19030;49.478;8.986;2023-03-01T07:16:59;0.10;99.90
32612;DHT22;19030;49.478;8.986;2023-03-01T07:19:00;0.20;99.90
32612;DHT22;19030;49.478;8.986;2023-03-01T07:21:05;0.40;99.90
32612;DHT22;19030;49.478;8.986;2023-03-01T07:23:06;0.70;99.90
32612;DHT22;19030;49.478;8.986;2023-03-01T07:25:07;1.10;99.90
32612;DHT22;19030;49.478;8.986;2023-03-01T07:27:08;1.50;99.90
32612;DHT22;19030;49.478;8.986;2023-03-01T07:29:10;1.80;99.90
32612;DHT22;19030;49.478;8.986;2023-03-01T07:31:10;2.20;99.90
32612;DHT22;19030;49.478;8.986;2023-03-01T07:33:11;2.50;99.90
32612;DHT22;19030;49.478;8.986;2023-03-01T07:35:12;2.70;99.90
32612;DHT22;19030;49.478;8.986;2023-03-01T07:37:12;2.80;99.90
32612;DHT22;19030;49.478;8.986;2023-03-01T07:39:13;3.00;99.90
32612;DHT22;19030;49.478;8.986;2023-03-01T07:41:14;3.10;99.90
32612;DHT22;19030;49.478;8.986;2023-03-01T07:43:14;3.30;99.90
32612;DHT22;19030;49.478;8.986;2023-03-01T07:45:15;3.50;99.30
32612;DHT22;19030;49.478;8.986;2023-03-01T07:47:15;3.50;98.10
32612;DHT22;19030;49.478;8.986;2023-03-01T07:49:16;3.70;98.40
32612;DHT22;19030;49.478;8.986;2023-03-01T07:51:16;3.80;96.40
32612;DHT22;19030;49.478;8.986;2023-03-01T07:53:17;3.90;95.50
32612;DHT22;19030;49.478;8.986;2023-03-01T07:55:18;4.10;94.70
32612;DHT22;19030;49.478;8.986;2023-03-01T07:57:19;4.10;95.00
32612;DHT22;19030;49.478;8.986;2023-03-01T07:59:20;4.20;95.10
32612;DHT22;19030;49.478;8.986;2023-03-01T08:01:21;4.40;94.40
32612;DHT22;19030;49.478;8.986;2023-03-01T08:03:21;4.60;94.50
32612;DHT22;19030;49.478;8.986;2023-03-01T08:05:22;4.90;93.20
32612;DHT22;19030;49.478;8.986;2023-03-01T08:07:22;5.00;91.10
32612;DHT22;19030;49.478;8.986;2023-03-01T08:09:23;5.20;90.70
32612;DHT22;19030;49.478;8.986;2023-03-01T08:11:24;5.30;90.00
32612;DHT22;19030;49.478;8.986;2023-03-01T08:13:25;5.50;88.60
32612;DHT22;19030;49.478;8.986;2023-03-01T08:15:25;5.70;87.40
32612;DHT22;19030;49.478;8.986;2023-03-01T08:17:26;5.80;84.00
32612;DHT22;19030;49.478;8.986;2023-03-01T08:19:27;5.70;83.60
32612;DHT22;19030;49.478;8.986;2023-03-01T08:21:28;5.60;83.50
32612;DHT22;19030;49.478;8.986;2023-03-01T08:23:29;5.70;83.80
32612;DHT22;19030;49.478;8.986;2023-03-01T08:25:30;5.80;83.10
32612;DHT22;19030;49.478;8.986;2023-03-01T08:27:30;6.00;82.50
32612;DHT22;19030;49.478;8.986;2023-03-01T08:29:32;6.20;80.40
32612;DHT22;19030;49.478;8.986;2023-03-01T08:31:35;6.20;79.10
32612;DHT22;19030;49.478;8.986;2023-03-01T08:33:36;6.00;79.30
32612;DHT22;19030;49.478;8.986;2023-03-01T08:35:37;6.10;79.40
32612;DHT22;19030;49.478;8.986;2023-03-01T08:37:37;6.20;78.60
32612;DHT22;19030;49.478;8.986;2023-03-01T08:39:38;6.60;78.00
32612;DHT22;19030;49.478;8.986;2023-03-01T08:41:39;7.00;75.20
32612;DHT22;19030;49.478;8.986;2023-03-01T08:43:40;7.20;72.60
32612;DHT22;19030;49.478;8.986;2023-03-01T08:45:40;7.10;71.30
32612;DHT22;19030;49.478;8.986;2023-03-01T08:47:41;7.00;72.30
32612;DHT22;19030;49.478;8.986;2023-03-01T08:49:41;7.20;70.30
32612;DHT22;19030;49.478;8.986;2023-03-01T08:51:43;7.40;69.40
32612;DHT22;19030;49.478;8.986;2023-03-01T08:53:44;7.50;68.90
32612;DHT22;19030;49.478;8.986;2023-03-01T08:55:45;7.70;67.90
32612;DHT22;19030;49.478;8.986;2023-03-01T08:57:46;8.00;66.80
32612;DHT22;19030;49.478;8.986;2023-03-01T08:59:46;8.30;64.70
32612;DHT22;19030;49.478;8.986;2023-03-01T09:01:47;9.00;62.40
32612;DHT22;19030;49.478;8.986;2023-03-01T09:03:48;9.70;59.40
32612;DHT22;19030;49.478;8.986;2023-03-01T09:05:48;10.60;57.40
32612;DHT22;19030;49.478;8.986;2023-03-01T09:07:50;11.60;53.90
32612;DHT22;19030;49.478;8.986;2023-03-01T09:09:51;12.70;49.90
32612;DHT22;19030;49.478;8.986;2023-03-01T09:11:53;13.60;47.50
32612;DHT22;19030;49.478;8.986;2023-03-01T09:13:54;14.50;44.70
32612;DHT22;19030;49.478;8.986;2023-03-01T09:15:54;14.70;42.90
32612;DHT22;19030;49.478;8.986;2023-03-01T09:17:55;15.30;42.20
32612;DHT22;19030;49.478;8.986;2023-03-01T09:19:55;16.20;39.60
32612;DHT22;19030;49.478;8.986;2023-03-01T09:21:56;16.50;39.10
32612;DHT22;19030;49.478;8.986;2023-03-01T09:23:58;17.30;36.80
32612;DHT22;19030;49.478;8.986;2023-03-01T09:25:59;17.80;35.70
32612;DHT22;19030;49.478;8.986;2023-03-01T09:27:59;17.60;35.50
32612;DHT22;19030;49.478;8.986;2023-03-01T09:30:00;17.40;36.30
32612;DHT22;19030;49.478;8.986;2023-03-01T09:32:01;17.90;34.90
32612;DHT22;19030;49.478;8.986;2023-03-01T09:34:02;18.00;34.90
32612;DHT22;19030;49.478;8.986;2023-03-01T09:36:04;18.30;33.90
32612;DHT22;19030;49.478;8.986;2023-03-01T09:38:05;19.10;32.90
32612;DHT22;19030;49.478;8.986;2023-03-01T09:40:08;19.60;31.70
32612;DHT22;19030;49.478;8.986;2023-03-01T09:42:12;19.50;31.00
32612;DHT22;19030;49.478;8.986;2023-03-01T09:46:22;20.20;30.50
32612;DHT22;19030;49.478;8.986;2023-03-01T09:48:26;20.40;30.10
32612;DHT22;19030;49.478;8.986;2023-03-01T09:50:33;20.70;29.80
32612;DHT22;19030;49.478;8.986;2023-03-01T09:53:05;20.40;30.00
32612;DHT22;19030;49.478;8.986;2023-03-01T09:55:16;20.40;29.40
32612;DHT22;19030;49.478;8.986;2023-03-01T09:57:26;20.40;29.50
32612;DHT22;19030;49.478;8.986;2023-03-01T10:01:58;19.50;30.80
32612;DHT22;19030;49.478;8.986;2023-03-01T10:06:21;20.60;29.60
32612;DHT22;19030;49.478;8.986;2023-03-01T10:08:49;20.40;29.90
32612;DHT22;19030;49.478;8.986;2023-03-01T10:10:51;20.50;29.10
32612;DHT22;19030;49.478;8.986;2023-03-01T10:12:53;21.30;29.20
32612;DHT22;19030;49.478;8.986;2023-03-01T10:15:11;22.40;28.10
32612;DHT22;19030;49.478;8.986;2023-03-01T10:19:33;21.80;28.10
32612;DHT22;19030;49.478;8.986;2023-03-01T10:21:44;22.60;27.90
32612;DHT22;19030;49.478;8.986;2023-03-01T10:23:49;23.70;26.70
32612;DHT22;19030;49.478;8.986;2023-03-01T10:26:01;24.10;26.20
32612;DHT22;19030;49.478;8.986;2023-03-01T10:30:52;22.60;27.10
32612;DHT22;19030;49.478;8.986;2023-03-01T10:32:53;22.30;28.00
32612;DHT22;19030;49.478;8.986;2023-03-01T10:34:54;21.90;27.70
32612;DHT22;19030;49.478;8.986;2023-03-01T10:39:18;20.10;30.20
32612;DHT22;19030;49.478;8.986;2023-03-01T10:41:21;20.90;29.20
32612;DHT22;19030;49.478;8.986;2023-03-01T10:43:40;20.60;29.30
32612;DHT22;19030;49.478;8.986;2023-03-01T10:45:43;20.90;29.00
32612;DHT22;19030;49.478;8.986;2023-03-01T10:47:44;21.70;28.60
32612;DHT22;19030;49.478;8.986;2023-03-01T10:52:11;21.30;28.70
32612;DHT22;19030;49.478;8.986;2023-03-01T10:54:28;21.20;28.70
32612;DHT22;19030;49.478;8.986;2023-03-01T10:56:47;21.50;29.10
32612;DHT22;19030;49.478;8.986;2023-03-01T10:59:03;22.70;27.70
32612;DHT22;19030;49.478;8.986;2023-03-01T11:01:23;23.00;26.90
32612;DHT22;19030;49.478;8.986;2023-03-01T11:03:33;23.80;26.80
32612;DHT22;19030;49.478;8.986;2023-03-01T11:05:33;24.00;26.00
32612;DHT22;19030;49.478;8.986;2023-03-01T11:07:49;22.50;27.20
32612;DHT22;19030;49.478;8.986;2023-03-01T11:09:50;22.40;27.40
32612;DHT22;19030;49.478;8.986;2023-03-01T11:11:55;23.10;27.50
32612;DHT22;19030;49.478;8.986;2023-03-01T11:14:06;23.30;26.60
32612;DHT22;19030;49.478;8.986;2023-03-01T11:16:11;23.40;26.40
32612;DHT22;19030;49.478;8.986;2023-03-01T11:18:20;24.00;26.30
32612;DHT22;19030;49.478;8.986;2023-03-01T11:20:28;24.10;25.50
32612;DHT22;19030;49.478;8.986;2023-03-01T11:22:31;23.60;26.50
32612;DHT22;19030;49.478;8.986;2023-03-01T11:24:48;23.60;25.90
32612;DHT22;19030;49.478;8.986;2023-03-01T11:26:54;24.10;25.90
32612;DHT22;19030;49.478;8.986;2023-03-01T11:28:58;24.10;25.60
32612;DHT22;19030;49.478;8.986;2023-03-01T11:31:08;23.20;26.30
32612;DHT22;19030;49.478;8.986;2023-03-01T11:33:32;23.80;26.10
32612;DHT22;19030;49.478;8.986;2023-03-01T11:35:42;24.70;25.60
32612;DHT22;19030;49.478;8.986;2023-03-01T11:38:03;25.80;25.00
32612;DHT22;19030;49.478;8.986;2023-03-01T11:40:32;26.40;24.90
32612;DHT22;19030;49.478;8.986;2023-03-01T11:44:46;27.30;24.00
32612;DHT22;19030;49.478;8.986;2023-03-01T11:49:34;26.70;23.30
32612;DHT22;19030;49.478;8.986;2023-03-01T11:56:27;25.30;24.20
32612;DHT22;19030;49.478;8.986;2023-03-01T12:01:03;24.70;24.90
32612;DHT22;19030;49.478;8.986;2023-03-01T12:05:40;24.80;25.20
32612;DHT22;19030;49.478;8.986;2023-03-01T12:08:24;24.90;25.00
32612;DHT22;19030;49.478;8.986;2023-03-01T12:15:39;22.90;25.90
32612;DHT22;19030;49.478;8.986;2023-03-01T12:25:07;21.70;28.60
32612;DHT22;19030;49.478;8.986;2023-03-01T12:29:37;21.90;27.50
32612;DHT22;19030;49.478;8.986;2023-03-01T12:36:58;21.80;27.80
32612;DHT22;19030;49.478;8.986;2023-03-01T12:43:58;21.30;27.80
32612;DHT22;19030;49.478;8.986;2023-03-01T12:46:17;21.20;28.30
32612;DHT22;19030;49.478;8.986;2023-03-01T12:51:01;22.60;27.40
32612;DHT22;19030;49.478;8.986;2023-03-01T12:53:03;24.00;26.60
32612;DHT22;19030;49.478;8.986;2023-03-01T12:55:24;23.40;26.30
32612;DHT22;19030;49.478;8.986;2023-03-01T12:57:39;23.70;26.30
32612;DHT22;19030;49.478;8.986;2023-03-01T12:59:59;23.50;26.20
32612;DHT22;19030;49.478;8.986;2023-03-01T13:02:26;23.00;26.30
32612;DHT22;19030;49.478;8.986;2023-03-01T13:04:53;23.50;25.90
32612;DHT22;19030;49.478;8.986;2023-03-01T13:07:12;23.00;26.50
32612;DHT22;19030;49.478;8.986;2023-03-01T13:09:22;23.50;26.10
32612;DHT22;19030;49.478;8.986;2023-03-01T13:11:24;23.50;26.10
32612;DHT22;19030;49.478;8.986;2023-03-01T13:13:26;22.60;26.80
32612;DHT22;19030;49.478;8.986;2023-03-01T13:15:32;21.60;27.70
32612;DHT22;19030;49.478;8.986;2023-03-01T13:17:41;20.60;28.10
32612;DHT22;19030;49.478;8.986;2023-03-01T13:19:56;20.70;29.10
32612;DHT22;19030;49.478;8.986;2023-03-01T13:21:57;21.10;29.00
32612;DHT22;19030;49.478;8.986;2023-03-01T13:23:57;21.40;28.00
32612;DHT22;19030;49.478;8.986;2023-03-01T13:32:36;20.10;29.60
32612;DHT22;19030;49.478;8.986;2023-03-01T13:34:43;20.40;29.20
32612;DHT22;19030;49.478;8.986;2023-03-01T13:36:48;20.80;28.70
32612;DHT22;19030;49.478;8.986;2023-03-01T13:38:56;20.60;28.70
32612;DHT22;19030;49.478;8.986;2023-03-01T13:41:00;20.10;29.10
32612;DHT22;19030;49.478;8.986;2023-03-01T13:43:28;20.00;29.40
32612;DHT22;19030;49.478;8.986;2023-03-01T13:45:36;20.50;29.60
32612;DHT22;19030;49.478;8.986;2023-03-01T13:47:38;20.90;28.80
32612;DHT22;19030;49.478;8.986;2023-03-01T13:49:49;20.80;28.80
32612;DHT22;19030;49.478;8.986;2023-03-01T13:51:51;20.40;28.70
32612;DHT22;19030;49.478;8.986;2023-03-01T13:53:53;20.30;29.30
32612;DHT22;19030;49.478;8.986;2023-03-01T13:56:00;20.30;29.10
32612;DHT22;19030;49.478;8.986;2023-03-01T13:58:05;20.50;29.00
32612;DHT22;19030;49.478;8.986;2023-03-01T14:00:37;20.50;29.00
32612;DHT22;19030;49.478;8.986;2023-03-01T14:02:38;20.80;28.70
32612;DHT22;19030;49.478;8.986;2023-03-01T14:04:40;21.30;29.10
32612;DHT22;19030;49.478;8.986;2023-03-01T14:06:40;21.70;28.20
32612;DHT22;19030;49.478;8.986;2023-03-01T14:08:43;21.60;28.30
32612;DHT22;19030;49.478;8.986;2023-03-01T14:13:28;21.30;28.10